Time;durP1;ratioP1;P1;durP2;ratioP2;P2;SDS_P1;SDS_P2;PMS_P1;PMS_P2;Temp;Humidity;BMP_temperature;BMP_pressure;BME280_temperature;BME280_humidity;BME280_pressure;Samples;Min_cycle;Max_cycle;Signal;HPM_P1;HPM_P2
2022/04/03 00:00:28;;;;;;;2.30;1.20;;;3.70;99.90;;;;;;5052862;28;20624;-80
2022/04/03 00:02:53;;;;;;;1.85;1.65;;;3.70;99.90;;;;;;5052847;28;20174;-80
2022/04/03 00:05:19;;;;;;;6.97;1.75;;;3.60;99.90;;;;;;5052473;28;20182;-80
2022/04/03 00:07:46;;;;;;;2.30;1.40;;;3.70;99.90;;;;;;5052676;28;20277;-79
2022/04/03 00:10:14;;;;;;;2.53;1.25;;;3.80;99.90;;;;;;5052655;28;20232;-80
2022/04/03 00:12:40;;;;;;;3.28;1.70;;;3.70;99.90;;;;;;5051108;28;20203;-80
2022/04/03 00:15:06;;;;;;;4.38;1.35;;;3.70;99.90;;;;;;5052521;28;20261;-80
2022/04/03 00:17:32;;;;;;;5.90;1.35;;;3.80;99.90;;;;;;5051083;28;20290;-80
2022/04/03 00:19:57;;;;;;;2.63;1.75;;;3.60;99.90;;;;;;5052317;28;20678;-80
2022/04/03 00:22:24;;;;;;;2.25;1.48;;;3.60;99.90;;;;;;5052537;28;20628;-80
2022/04/03 00:24:51;;;;;;;1.65;1.50;;;3.80;99.90;;;;;;5052802;28;20516;-80
2022/04/03 00:27:17;;;;;;;3.58;2.00;;;3.80;99.90;;;;;;5051988;28;20217;-80
2022/04/03 00:29:43;;;;;;;3.38;1.33;;;4.00;99.90;;;;;;5052283;28;20608;-80
2022/04/03 00:32:09;;;;;;;2.85;2.40;;;4.10;99.90;;;;;;5052433;28;20175;-80
2022/04/03 00:34:34;;;;;;;4.95;1.40;;;4.10;99.90;;;;;;5052202;28;20175;-80
2022/04/03 00:37:00;;;;;;;1.70;1.40;;;3.90;99.90;;;;;;5051017;28;20178;-80
2022/04/03 00:39:26;;;;;;;1.73;1.42;;;3.80;99.90;;;;;;5052551;28;20225;-80
2022/04/03 00:41:52;;;;;;;4.72;1.77;;;3.70;99.90;;;;;;5052463;28;20229;-80
2022/04/03 00:44:18;;;;;;;1.50;1.40;;;3.70;99.90;;;;;;5052374;28;21231;-80
2022/04/03 00:46:46;;;;;;;1.67;1.27;;;3.30;99.90;;;;;;5050864;28;20182;-80
2022/04/03 00:49:13;;;;;;;4.72;1.63;;;2.90;99.90;;;;;;5052195;28;20555;-80
2022/04/03 00:51:39;;;;;;;3.45;1.48;;;3.00;99.90;;;;;;5050804;28;20659;-80
2022/04/03 00:54:06;;;;;;;1.20;1.10;;;3.20;99.90;;;;;;5051778;28;20250;-80
2022/04/03 00:56:32;;;;;;;2.17;1.45;;;3.20;99.90;;;;;;5051930;28;20632;-79
2022/04/03 00:58:58;;;;;;;1.73;1.42;;;3.40;99.90;;;;;;5050732;28;20190;-80
2022/04/03 01:01:24;;;;;;;4.43;2.13;;;3.40;99.90;;;;;;5052305;28;20168;-80
2022/04/03 01:03:49;;;;;;;3.20;1.13;;;3.30;99.90;;;;;;5052051;28;20667;-80
2022/04/03 01:06:16;;;;;;;6.65;1.58;;;3.50;99.90;;;;;;5050831;28;20240;-80
2022/04/03 01:08:42;;;;;;;1.88;1.67;;;3.40;99.90;;;;;;5052149;28;20739;-80
2022/04/03 01:11:11;;;;;;;1.65;1.55;;;3.60;99.90;;;;;;5052119;28;20167;-80
2022/04/03 01:13:51;;;;;;;1.92;1.73;;;3.50;99.90;;;;;;5050895;28;20217;-80
2022/04/03 01:16:17;;;;;;;2.85;1.83;;;3.60;99.90;;;;;;5052075;28;20217;-81
2022/04/03 01:18:42;;;;;;;1.98;1.50;;;3.10;99.90;;;;;;5050663;28;20191;-80
2022/04/03 01:21:08;;;;;;;2.83;1.40;;;3.10;99.90;;;;;;5051971;28;20238;-80
2022/04/03 01:23:34;;;;;;;1.70;1.40;;;3.20;99.90;;;;;;5051717;28;20167;-80
2022/04/03 01:25:59;;;;;;;2.30;1.98;;;3.50;99.90;;;;;;5050496;28;20685;-80
2022/04/03 01:28:25;;;;;;;2.67;1.88;;;3.60;99.90;;;;;;5052076;28;20266;-80
2022/04/03 01:30:51;;;;;;;2.38;1.65;;;3.70;99.90;;;;;;5052260;28;20191;-80
2022/04/03 01:33:17;;;;;;;3.47;1.83;;;3.60;99.90;;;;;;5050575;28;20218;-79
2022/04/03 01:35:43;;;;;;;2.60;1.43;;;3.60;99.90;;;;;;5050663;28;20167;-80
2022/04/03 01:38:09;;;;;;;3.67;1.90;;;3.50;99.90;;;;;;5051805;28;20191;-80
2022/04/03 01:40:35;;;;;;;9.18;1.88;;;3.40;99.90;;;;;;5054994;28;20374;-80
2022/04/03 01:43:06;;;;;;;6.97;1.98;;;3.10;99.90;;;;;;5055316;28;20216;-80
2022/04/03 01:45:32;;;;;;;1.80;1.35;;;3.10;99.90;;;;;;5055626;28;20628;-80
2022/04/03 01:47:59;;;;;;;2.00;1.65;;;2.90;99.90;;;;;;5054127;28;20187;-81
2022/04/03 01:50:25;;;;;;;2.08;1.67;;;2.70;99.90;;;;;;5055220;28;20207;-81
2022/04/03 01:52:51;;;;;;;2.13;1.60;;;2.60;99.90;;;;;;5055448;28;20202;-80
2022/04/03 01:55:18;;;;;;;5.20;1.48;;;2.60;99.90;;;;;;5055312;28;20187;-80
2022/04/03 01:57:43;;;;;;;7.90;1.85;;;2.50;99.90;;;;;;5055597;28;20549;-81
2022/04/03 02:00:10;;;;;;;3.78;1.45;;;2.50;99.90;;;;;;5055292;28;20168;-80
2022/04/03 02:02:37;;;;;;;2.60;1.40;;;2.60;99.90;;;;;;5054796;28;20171;-81
2022/04/03 02:05:03;;;;;;;2.60;1.55;;;2.60;99.90;;;;;;5053633;28;20163;-81
2022/04/03 02:07:30;;;;;;;8.35;2.10;;;2.60;99.90;;;;;;5055026;28;20329;-81
2022/04/03 02:09:56;;;;;;;2.47;1.75;;;2.70;99.90;;;;;;5055081;28;20749;-81
2022/04/03 02:12:22;;;;;;;1.70;1.55;;;2.80;99.90;;;;;;5054657;28;20168;-80
2022/04/03 02:14:48;;;;;;;2.20;1.60;;;2.70;99.90;;;;;;5053599;28;20177;-80
2022/04/03 02:17:13;;;;;;;4.47;1.30;;;2.80;99.90;;;;;;5053184;28;20171;-80
2022/04/03 02:19:39;;;;;;;6.63;1.40;;;2.70;99.90;;;;;;5054522;28;20155;-81
2022/04/03 02:22:04;;;;;;;1.52;1.33;;;2.80;99.90;;;;;;5054844;28;20630;-80
2022/04/03 02:24:30;;;;;;;10.10;1.83;;;2.80;99.90;;;;;;5054818;28;20182;-80
2022/04/03 02:26:56;;;;;;;5.28;1.42;;;3.00;99.90;;;;;;5054526;28;20170;-80
2022/04/03 02:29:22;;;;;;;1.98;1.40;;;3.10;99.90;;;;;;5054471;28;20191;-80
2022/04/03 02:31:47;;;;;;;3.28;1.50;;;3.10;99.90;;;;;;5054715;28;20194;-79
2022/04/03 02:34:13;;;;;;;3.25;1.88;;;2.90;99.90;;;;;;5053187;28;20207;-81
2022/04/03 02:36:43;;;;;;;3.13;1.38;;;2.80;99.90;;;;;;5053261;28;20175;-80
2022/04/03 02:39:09;;;;;;;3.67;1.27;;;2.90;99.90;;;;;;5054382;28;20191;-80
2022/04/03 02:41:35;;;;;;;1.73;1.50;;;3.10;99.90;;;;;;5054386;28;20167;-80
2022/04/03 02:44:01;;;;;;;2.08;1.60;;;3.00;99.90;;;;;;5054289;28;20167;-80
2022/04/03 02:46:26;;;;;;;3.90;1.58;;;3.10;99.90;;;;;;5054475;28;20170;-81
2022/04/03 02:48:52;;;;;;;4.87;1.80;;;3.30;99.90;;;;;;5054107;28;20759;-80
2022/04/03 02:51:17;;;;;;;2.10;1.67;;;3.20;99.90;;;;;;5053604;28;20530;-81
2022/04/03 02:53:43;;;;;;;1.70;1.40;;;3.20;99.90;;;;;;5054256;28;20218;-80
2022/04/03 02:56:09;;;;;;;4.65;1.58;;;3.10;99.90;;;;;;5052801;28;20228;-80
2022/04/03 02:58:34;;;;;;;1.65;1.30;;;2.70;99.90;;;;;;5054097;28;20574;-80
2022/04/03 03:01:00;;;;;;;2.40;1.40;;;2.70;99.90;;;;;;5054165;28;20171;-81
2022/04/03 03:03:26;;;;;;;1.88;1.50;;;2.60;99.90;;;;;;5054120;28;20163;-80
2022/04/03 03:05:51;;;;;;;3.00;1.65;;;2.60;99.90;;;;;;5053994;28;20167;-80
2022/04/03 03:08:18;;;;;;;1.80;1.48;;;2.50;99.90;;;;;;5053548;28;20681;-80
2022/04/03 03:10:43;;;;;;;3.10;1.80;;;2.50;99.90;;;;;;5053739;28;20163;-80
2022/04/03 03:13:09;;;;;;;2.35;1.98;;;2.50;99.90;;;;;;5053993;28;20302;-81
2022/04/03 03:15:35;;;;;;;8.43;1.48;;;2.30;99.90;;;;;;5053744;28;20174;-81
2022/04/03 03:18:00;;;;;;;1.45;1.35;;;2.20;99.90;;;;;;5053513;28;20211;-83
2022/04/03 03:20:26;;;;;;;3.72;2.35;;;2.20;99.90;;;;;;5053511;28;20167;-80
2022/04/03 03:22:52;;;;;;;1.88;1.60;;;2.20;99.90;;;;;;5051899;28;20244;-80
2022/04/03 03:25:18;;;;;;;2.25;1.60;;;2.20;99.90;;;;;;5053304;28;20164;-80
2022/04/03 03:27:44;;;;;;;2.60;1.88;;;2.30;99.90;;;;;;5053342;28;20537;-81
2022/04/03 03:30:11;;;;;;;2.03;1.90;;;2.30;99.90;;;;;;5053141;28;20163;-80
2022/04/03 03:32:37;;;;;;;2.42;1.70;;;2.20;99.90;;;;;;5053358;28;20198;-80
2022/04/03 03:35:04;;;;;;;2.15;1.70;;;2.20;99.90;;;;;;5053258;28;20185;-80
2022/04/03 03:37:30;;;;;;;1.77;1.67;;;2.10;99.90;;;;;;5053106;28;20538;-80
2022/04/03 03:39:56;;;;;;;5.28;1.95;;;2.10;99.90;;;;;;5052968;28;20178;-80
2022/04/03 03:42:22;;;;;;;3.13;1.83;;;2.40;99.90;;;;;;5053179;28;20171;-80
2022/04/03 03:44:48;;;;;;;1.87;1.77;;;2.40;99.90;;;;;;5053100;28;20175;-80
2022/04/03 03:47:13;;;;;;;2.67;1.88;;;2.20;99.90;;;;;;5053494;28;20171;-79
2022/04/03 03:49:39;;;;;;;2.13;1.65;;;2.00;99.90;;;;;;5052657;28;20167;-80
2022/04/03 03:52:05;;;;;;;2.53;1.60;;;2.20;99.90;;;;;;5052664;28;20171;-80
2022/04/03 03:54:32;;;;;;;2.45;2.20;;;2.30;99.90;;;;;;5052868;28;20805;-80
2022/04/03 03:56:59;;;;;;;2.20;1.70;;;2.40;99.90;;;;;;5052840;28;20191;-80
2022/04/03 03:59:26;;;;;;;7.40;1.75;;;2.30;99.90;;;;;;5052426;28;20218;-80
2022/04/03 04:01:51;;;;;;;2.33;2.13;;;2.30;99.90;;;;;;5052656;28;20205;-80
2022/04/03 04:04:17;;;;;;;2.42;2.15;;;2.20;99.90;;;;;;5052256;28;20167;-80
2022/04/03 04:06:42;;;;;;;2.78;1.73;;;2.10;99.90;;;;;;5052123;28;20634;-80
2022/04/03 04:09:08;;;;;;;2.15;1.90;;;2.20;99.90;;;;;;5051692;28;20187;-80
2022/04/03 04:11:34;;;;;;;3.57;1.60;;;2.20;99.90;;;;;;5052941;28;20174;-80
2022/04/03 04:14:00;;;;;;;3.45;2.22;;;2.10;99.90;;;;;;5051204;28;20242;-80
2022/04/03 04:16:25;;;;;;;1.58;1.48;;;2.10;99.90;;;;;;5053020;28;20174;-80
2022/04/03 04:18:51;;;;;;;5.97;2.15;;;2.30;99.90;;;;;;5052703;28;20190;-80
2022/04/03 04:21:17;;;;;;;2.08;1.85;;;2.40;99.90;;;;;;5052204;28;20217;-80
2022/04/03 04:23:43;;;;;;;5.20;1.85;;;2.20;99.90;;;;;;5052610;28;20245;-80
2022/04/03 04:26:09;;;;;;;2.03;1.77;;;2.00;99.90;;;;;;5052500;28;20182;-80
2022/04/03 04:28:35;;;;;;;2.40;2.00;;;1.90;99.90;;;;;;5052974;28;20183;-80
2022/04/03 04:31:01;;;;;;;8.23;3.27;;;2.00;99.90;;;;;;5052401;28;20177;-80
2022/04/03 04:33:26;;;;;;;4.50;2.40;;;2.10;99.90;;;;;;5052131;28;20801;-80
2022/04/03 04:35:52;;;;;;;5.78;2.13;;;1.90;99.90;;;;;;5052326;28;20178;-80
2022/04/03 04:38:18;;;;;;;3.38;1.70;;;1.70;99.90;;;;;;5052747;28;20195;-80
2022/04/03 04:40:44;;;;;;;3.43;1.87;;;1.80;99.90;;;;;;5052757;28;20163;-80
2022/04/03 04:43:11;;;;;;;5.68;2.60;;;1.90;99.90;;;;;;5052442;28;20677;-80
2022/04/03 04:45:36;;;;;;;21.15;2.80;;;1.90;99.90;;;;;;5052554;28;20175;-80
2022/04/03 04:48:02;;;;;;;3.27;2.63;;;2.00;99.90;;;;;;5052407;28;20198;-81
2022/04/03 04:50:29;;;;;;;7.03;2.63;;;2.10;99.90;;;;;;5052266;28;20169;-80
2022/04/03 04:52:56;;;;;;;5.87;2.27;;;2.20;99.90;;;;;;5052358;28;20260;-80
2022/04/03 04:55:22;;;;;;;3.47;2.80;;;2.30;99.90;;;;;;5052302;28;20588;-80
2022/04/03 04:57:50;;;;;;;3.00;2.70;;;2.00;99.90;;;;;;5052305;28;20183;-80
2022/04/03 05:00:17;;;;;;;4.70;2.42;;;1.90;99.90;;;;;;5052346;28;20240;-80
2022/04/03 05:02:46;;;;;;;13.93;2.73;;;1.70;99.90;;;;;;5052159;28;20588;-80
2022/04/03 05:05:13;;;;;;;3.90;2.60;;;1.70;99.90;;;;;;5052246;28;20628;-80
2022/04/03 05:07:39;;;;;;;5.22;2.70;;;1.70;99.90;;;;;;5052479;28;20187;-80
2022/04/03 05:10:06;;;;;;;2.70;2.50;;;1.60;99.90;;;;;;5052282;28;20210;-80
2022/04/03 05:12:34;;;;;;;2.63;2.43;;;1.70;99.90;;;;;;5052250;28;20179;-80
2022/04/03 05:14:59;;;;;;;3.88;2.58;;;1.40;99.90;;;;;;5053466;28;20235;-80
2022/04/03 05:17:26;;;;;;;4.68;2.47;;;1.40;99.90;;;;;;5055009;28;20285;-80
2022/04/03 05:19:54;;;;;;;4.43;2.85;;;1.40;99.90;;;;;;5056160;28;20190;-80
2022/04/03 05:22:23;;;;;;;6.93;3.10;;;1.60;99.90;;;;;;5056027;28;20248;-80
2022/04/03 05:24:52;;;;;;;4.60;3.10;;;1.70;99.90;;;;;;5054096;28;20297;-80
2022/04/03 05:27:18;;;;;;;4.82;2.92;;;1.50;99.90;;;;;;5055759;28;20624;-80
2022/04/03 05:29:44;;;;;;;5.10;3.03;;;1.60;99.90;;;;;;5055786;28;20170;-81
2022/04/03 05:32:10;;;;;;;4.10;3.20;;;1.70;99.90;;;;;;5055929;28;20179;-80
2022/04/03 05:34:35;;;;;;;6.68;3.13;;;1.70;99.90;;;;;;5055435;28;20207;-80
2022/04/03 05:37:01;;;;;;;13.82;3.40;;;1.50;99.90;;;;;;5055529;28;20175;-80
2022/04/03 05:39:27;;;;;;;7.05;3.03;;;1.60;99.90;;;;;;5055825;28;20612;-80
2022/04/03 05:41:55;;;;;;;5.07;3.03;;;1.60;99.90;;;;;;5055701;28;20517;-80
2022/04/03 05:44:21;;;;;;;4.50;2.93;;;1.70;99.90;;;;;;5054609;28;20530;-79
2022/04/03 05:46:47;;;;;;;3.80;2.53;;;1.70;99.90;;;;;;5054167;28;20182;-80
2022/04/03 05:49:12;;;;;;;3.50;3.17;;;1.60;99.90;;;;;;5054912;28;20564;-80
2022/04/03 05:51:38;;;;;;;6.23;3.33;;;1.60;99.90;;;;;;5055099;28;20674;-79
2022/04/03 05:54:04;;;;;;;3.33;2.67;;;1.50;99.90;;;;;;5055193;28;20238;-80
2022/04/03 05:56:31;;;;;;;6.72;2.75;;;1.70;99.90;;;;;;5054909;28;20182;-80
2022/04/03 05:58:57;;;;;;;4.10;2.85;;;2.00;99.90;;;;;;5054956;28;20232;-79
2022/04/03 06:01:23;;;;;;;6.55;3.15;;;2.20;99.90;;;;;;5053857;28;20167;-80
2022/04/03 06:03:49;;;;;;;5.47;2.83;;;2.10;99.90;;;;;;5069881;28;20198;-81
2022/04/03 06:06:15;;;;;;;2.53;2.33;;;2.10;99.90;;;;;;5053918;28;20177;-80
2022/04/03 06:08:41;;;;;;;13.20;4.38;;;2.20;99.90;;;;;;5053571;28;20195;-80
2022/04/03 06:11:07;;;;;;;5.28;2.95;;;2.20;99.90;;;;;;5053736;28;20293;-82
2022/04/03 06:13:33;;;;;;;4.82;3.47;;;2.30;99.90;;;;;;5053557;28;20241;-80
2022/04/03 06:15:58;;;;;;;5.25;3.13;;;2.50;99.90;;;;;;5054863;28;20570;-79
2022/04/03 06:18:24;;;;;;;5.90;3.05;;;2.40;99.90;;;;;;5054534;28;20243;-80
2022/04/03 06:20:51;;;;;;;6.60;3.45;;;2.40;99.90;;;;;;5054829;28;20167;-81
2022/04/03 06:23:21;;;;;;;3.40;3.10;;;2.40;99.90;;;;;;5055362;28;20170;-80
2022/04/03 06:25:52;;;;;;;8.85;3.58;;;2.70;99.90;;;;;;5052374;28;20258;-80
2022/04/03 06:28:18;;;;;;;4.35;2.92;;;2.90;99.90;;;;;;5053237;28;20187;-79
2022/04/03 06:30:44;;;;;;;7.50;3.33;;;3.10;99.90;;;;;;5054521;28;20209;-79
2022/04/03 06:33:10;;;;;;;6.85;3.65;;;3.10;99.90;;;;;;5054368;28;20207;-80
2022/04/03 06:35:35;;;;;;;5.47;2.75;;;3.30;99.90;;;;;;5053135;28;20171;-80
2022/04/03 06:38:01;;;;;;;7.93;2.97;;;3.40;99.90;;;;;;5052976;28;20676;-80
2022/04/03 06:40:27;;;;;;;3.63;3.33;;;3.50;99.90;;;;;;5054194;28;20156;-80
2022/04/03 06:42:53;;;;;;;6.32;2.95;;;3.60;99.90;;;;;;5054152;28;20170;-79
2022/04/03 06:45:19;;;;;;;4.95;3.28;;;3.70;99.90;;;;;;5052832;28;20307;-79
2022/04/03 06:47:45;;;;;;;7.53;3.30;;;3.80;99.90;;;;;;5054198;28;20222;-78
2022/04/03 06:50:11;;;;;;;4.75;3.50;;;3.80;99.90;;;;;;5053944;28;20171;-79
2022/04/03 06:52:37;;;;;;;3.58;2.97;;;4.00;99.90;;;;;;5054033;28;20167;-79
2022/04/03 06:55:08;;;;;;;3.75;3.42;;;4.10;99.90;;;;;;5053548;28;20213;-79
2022/04/03 06:57:34;;;;;;;3.38;3.08;;;4.30;99.90;;;;;;5052425;28;20652;-79
2022/04/03 07:00:00;;;;;;;3.42;3.13;;;4.40;99.90;;;;;;5053798;28;20172;-78
2022/04/03 07:02:26;;;;;;;10.88;3.83;;;4.30;99.90;;;;;;5053944;28;20693;-78
2022/04/03 07:04:52;;;;;;;5.85;3.90;;;4.40;99.90;;;;;;5052336;28;20175;-78
2022/04/03 07:07:22;;;;;;;7.72;3.90;;;4.40;99.90;;;;;;5053696;28;20163;-78
2022/04/03 07:09:48;;;;;;;5.18;3.33;;;4.60;99.90;;;;;;5053897;28;20260;-86
2022/04/03 07:12:14;;;;;;;9.50;3.22;;;4.70;99.90;;;;;;5054084;28;20640;-82
2022/04/03 07:14:40;;;;;;;6.13;3.97;;;4.70;99.90;;;;;;5052176;28;20655;-79
2022/04/03 07:17:06;;;;;;;6.97;3.70;;;4.70;99.90;;;;;;5052158;28;20206;-78
2022/04/03 07:19:31;;;;;;;5.10;3.05;;;4.80;99.90;;;;;;5053651;28;20198;-79
2022/04/03 07:21:57;;;;;;;5.65;3.13;;;4.80;99.90;;;;;;5053652;28;20593;-79
2022/04/03 07:24:24;;;;;;;2.85;2.50;;;5.00;99.90;;;;;;5052270;28;20256;-81
2022/04/03 07:26:50;;;;;;;4.30;2.65;;;5.20;99.90;;;;;;5052380;28;20536;-79
2022/04/03 07:29:16;;;;;;;2.65;1.83;;;5.30;99.90;;;;;;5052114;28;20183;-79
2022/04/03 07:31:42;;;;;;;13.77;1.80;;;5.50;99.90;;;;;;5051996;28;20236;-79
2022/04/03 07:34:08;;;;;;;10.60;2.20;;;5.80;99.90;;;;;;5053503;28;20293;-79
2022/04/03 07:36:33;;;;;;;2.80;2.22;;;5.80;99.90;;;;;;5053307;28;20181;-78
2022/04/03 07:38:59;;;;;;;5.28;2.20;;;5.70;99.90;;;;;;5051801;28;20195;-78
2022/04/03 07:41:24;;;;;;;4.80;1.58;;;5.70;99.90;;;;;;5052043;28;20159;-79
2022/04/03 07:43:50;;;;;;;2.08;1.70;;;5.50;99.90;;;;;;5052164;28;20167;-78
2022/04/03 07:46:18;;;;;;;3.47;2.00;;;5.60;99.90;;;;;;5053114;28;20171;-81
2022/04/03 07:48:45;;;;;;;2.45;1.85;;;5.70;99.90;;;;;;5051835;28;20207;-83
2022/04/03 07:51:11;;;;;;;3.25;1.58;;;5.80;99.90;;;;;;5051718;28;20262;-78
2022/04/03 07:53:37;;;;;;;2.30;1.58;;;5.80;99.90;;;;;;5052919;28;20209;-80
2022/04/03 07:56:05;;;;;;;2.05;1.48;;;5.90;99.90;;;;;;5051830;28;20182;-80
2022/04/03 07:58:31;;;;;;;1.70;1.60;;;6.10;99.90;;;;;;5051813;28;20668;-79
2022/04/03 08:00:57;;;;;;;1.55;1.45;;;6.10;99.90;;;;;;5052973;28;20167;-79
2022/04/03 08:03:23;;;;;;;2.95;1.88;;;6.30;99.90;;;;;;5042849;28;20180;-88
2022/04/03 08:05:48;;;;;;;3.55;1.30;;;6.30;99.90;;;;;;5033400;28;20172;-83
2022/04/03 08:08:14;;;;;;;5.03;0.80;;;6.40;99.90;;;;;;5047538;28;21028;-82
2022/04/03 08:10:39;;;;;;;1.73;1.00;;;6.10;99.90;;;;;;5052025;28;20662;-77
2022/04/03 08:13:05;;;;;;;0.80;0.80;;;6.10;99.90;;;;;;5033184;28;20218;-83
2022/04/03 08:15:31;;;;;;;4.88;1.35;;;6.00;99.90;;;;;;5052317;28;20160;-80
2022/04/03 08:17:56;;;;;;;1.20;1.02;;;6.10;99.90;;;;;;5046876;28;20542;-80
2022/04/03 08:20:22;;;;;;;2.80;1.45;;;6.20;99.90;;;;;;5051610;28;20521;-80
2022/04/03 08:22:49;;;;;;;2.03;1.38;;;6.40;99.90;;;;;;5036096;28;20175;-81
2022/04/03 08:25:15;;;;;;;2.55;1.25;;;6.50;99.90;;;;;;5037303;28;20164;-79
2022/04/03 08:27:44;;;;;;;1.27;0.90;;;6.40;99.90;;;;;;5052028;28;20196;-83
2022/04/03 08:30:13;;;;;;;1.35;0.98;;;6.60;99.90;;;;;;5040973;28;20244;-80
2022/04/03 08:32:39;;;;;;;1.27;1.00;;;6.30;99.90;;;;;;5040870;28;20171;-85
2022/04/03 08:35:05;;;;;;;3.03;1.10;;;6.60;99.90;;;;;;5052879;28;20227;-82
2022/04/03 08:37:31;;;;;;;1.25;1.02;;;6.60;99.90;;;;;;5051296;28;20187;-79
2022/04/03 08:39:56;;;;;;;0.80;0.80;;;6.80;99.90;;;;;;5051555;28;20229;-78
2022/04/03 08:42:22;;;;;;;2.30;1.15;;;7.00;99.90;;;;;;5052486;28;20246;-83
2022/04/03 08:44:47;;;;;;;3.38;1.02;;;6.90;99.90;;;;;;5052410;28;20250;-85
2022/04/03 08:47:17;;;;;;;1.40;1.30;;;7.00;99.90;;;;;;5052409;28;20170;-78
2022/04/03 08:49:44;;;;;;;1.55;1.27;;;7.10;99.90;;;;;;5045292;28;20646;-78
2022/04/03 08:52:12;;;;;;;5.20;1.25;;;7.10;99.90;;;;;;5052347;28;20250;-78
2022/04/03 08:54:38;;;;;;;1.98;1.30;;;7.10;99.90;;;;;;5051016;28;20209;-79
2022/04/03 08:57:04;;;;;;;2.78;1.38;;;7.30;99.90;;;;;;5052324;28;20187;-80
2022/04/03 08:59:30;;;;;;;10.88;2.28;;;7.30;99.90;;;;;;5053003;28;20170;-78
2022/04/03 09:01:55;;;;;;;1.60;1.35;;;7.10;99.90;;;;;;5051429;28;20240;-82
2022/04/03 09:04:21;;;;;;;2.38;1.88;;;7.00;99.90;;;;;;5050759;28;20159;-80
2022/04/03 09:06:58;;;;;;;1.77;1.42;;;7.10;99.90;;;;;;5050877;28;20178;-81
2022/04/03 09:09:25;;;;;;;2.97;1.52;;;7.10;99.90;;;;;;5051893;28;20199;-82
2022/04/03 09:12:06;;;;;;;2.42;1.70;;;7.40;99.90;;;;;;5052944;28;20164;-86
2022/04/03 09:14:34;;;;;;;2.55;1.35;;;7.60;99.90;;;;;;5053575;28;20691;-86
2022/04/03 09:17:00;;;;;;;7.80;1.52;;;7.70;99.90;;;;;;5052653;28;20247;-83
2022/04/03 09:19:33;;;;;;;2.13;1.73;;;7.80;99.90;;;;;;5051306;28;20636;-83
2022/04/03 09:22:00;;;;;;;1.95;1.25;;;7.50;99.90;;;;;;5052533;28;20199;-79
2022/04/03 09:24:26;;;;;;;3.22;1.80;;;7.70;99.90;;;;;;5050540;28;20688;-79
2022/04/03 09:27:02;;;;;;;5.63;1.80;;;7.60;99.90;;;;;;5052200;28;20159;-79
2022/04/03 09:29:28;;;;;;;1.70;1.42;;;7.80;99.90;;;;;;5052112;28;20216;-79
2022/04/03 09:31:59;;;;;;;1.27;1.17;;;7.80;99.90;;;;;;5051998;28;20167;-79
2022/04/03 09:34:29;;;;;;;2.15;1.40;;;7.70;99.90;;;;;;5051646;28;20211;-79
2022/04/03 09:36:59;;;;;;;1.90;1.70;;;7.70;99.90;;;;;;5050568;28;20174;-79
2022/04/03 09:39:29;;;;;;;1.67;1.42;;;7.90;99.90;;;;;;5050316;28;20168;-80
2022/04/03 09:41:58;;;;;;;2.28;1.58;;;7.90;99.90;;;;;;5052074;28;20160;-79
2022/04/03 09:44:32;;;;;;;2.25;1.60;;;7.80;99.90;;;;;;5051594;28;20202;-80
2022/04/03 09:47:36;;;;;;;4.03;1.50;;;8.10;99.90;;;;;;5077271;22;20579;-92
2022/04/03 09:50:06;;;;;;;1.95;1.40;;;8.20;99.90;;;;;;5053298;28;20176;-79
2022/04/03 09:52:43;;;;;;;4.00;1.90;;;8.00;99.90;;;;;;5052027;28;20636;-93
2022/04/03 09:55:22;;;;;;;5.63;1.63;;;8.30;99.90;;;;;;5054896;28;20224;-88
2022/04/03 09:58:01;;;;;;;3.90;1.33;;;8.30;99.90;;;;;;5055715;28;20182;-78
2022/04/03 10:00:38;;;;;;;1.60;1.48;;;8.40;99.90;;;;;;5052568;28;20306;-78
2022/04/03 10:03:04;;;;;;;4.78;1.23;;;8.10;99.90;;;;;;5055970;28;20186;-79
2022/04/03 10:05:32;;;;;;;3.08;1.40;;;8.30;99.90;;;;;;5055668;28;20152;-80
2022/04/03 10:08:00;;;;;;;1.27;1.17;;;8.50;99.90;;;;;;5055575;28;20202;-78
2022/04/03 10:10:27;;;;;;;1.33;1.20;;;8.40;99.90;;;;;;5054836;28;20167;-89
2022/04/03 10:12:55;;;;;;;4.80;1.30;;;8.50;99.90;;;;;;5056290;28;20210;-89
2022/04/03 10:15:21;;;;;;;1.67;1.50;;;8.60;99.90;;;;;;5056495;28;20169;-85
2022/04/03 10:17:46;;;;;;;2.45;1.83;;;8.60;99.90;;;;;;5056872;28;20266;-78
2022/04/03 10:20:14;;;;;;;1.38;1.27;;;8.50;99.90;;;;;;5056334;28;20167;-85
2022/04/03 10:22:44;;;;;;;2.33;1.48;;;8.80;99.90;;;;;;5056669;28;20170;-78
2022/04/03 10:25:14;;;;;;;2.97;1.48;;;9.10;99.90;;;;;;5056194;28;20692;-88
2022/04/03 10:27:42;;;;;;;3.15;1.55;;;9.20;99.90;;;;;;5055853;28;20187;-78
2022/04/03 10:30:10;;;;;;;2.00;1.80;;;9.00;99.90;;;;;;5056428;28;20167;-89
2022/04/03 10:32:36;;;;;;;5.40;2.17;;;9.20;99.90;;;;;;5054574;28;20581;-86
2022/04/03 10:35:08;;;;;;;3.78;1.55;;;9.20;99.90;;;;;;5055870;28;20232;-86
2022/04/03 10:37:41;;;;;;;1.27;1.17;;;9.30;99.90;;;;;;5056014;28;20183;-84
2022/04/03 10:40:17;;;;;;;3.47;1.70;;;9.30;99.90;;;;;;5055432;28;20178;-85
2022/04/03 10:43:01;;;;;;;3.15;1.50;;;9.30;99.90;;;;;;5058778;28;20182;-87
2022/04/03 10:45:33;;;;;;;3.60;1.70;;;9.40;99.90;;;;;;5065430;28;20531;-77
2022/04/03 10:48:23;;;;;;;2.17;1.75;;;9.60;99.90;;;;;;5064172;28;20203;-77
2022/04/03 10:51:23;;;;;;;2.63;2.00;;;9.60;99.90;;;;;;5058167;28;20221;-77
2022/04/03 10:53:59;;;;;;;3.30;2.30;;;9.70;99.90;;;;;;5057706;28;20207;-85
2022/04/03 10:56:28;;;;;;;2.55;2.20;;;9.60;99.90;;;;;;5056151;28;20163;-85
2022/04/03 10:58:55;;;;;;;4.05;2.22;;;9.60;99.90;;;;;;5053580;28;20195;-80
2022/04/03 11:01:33;;;;;;;2.13;1.80;;;9.50;99.90;;;;;;5053482;28;20169;-83
2022/04/03 11:04:12;;;;;;;4.03;2.10;;;9.30;99.90;;;;;;5056032;28;20175;-84
2022/04/03 11:06:40;;;;;;;4.40;2.80;;;9.30;99.90;;;;;;5055814;28;20241;-86
2022/04/03 11:09:12;;;;;;;2.63;2.20;;;9.50;99.90;;;;;;5055046;28;20295;-87
2022/04/03 11:11:48;;;;;;;4.38;1.60;;;9.60;99.90;;;;;;5055619;28;20198;-82
2022/04/03 11:14:52;;;;;;;1.60;1.50;;;9.50;99.90;;;;;;5055265;28;20214;-83
2022/04/03 11:17:48;;;;;;;1.55;1.45;;;9.30;99.90;;;;;;5054942;28;20171;-87
2022/04/03 11:20:39;;;;;;;1.88;1.70;;;9.80;99.90;;;;;;5050297;28;20183;-78
2022/04/03 11:23:07;;;;;;;5.60;1.52;;;9.80;99.90;;;;;;5055121;28;20240;-84
2022/04/03 11:25:32;;;;;;;3.20;1.83;;;10.10;99.90;;;;;;5054732;28;20616;-87
2022/04/03 11:27:59;;;;;;;11.05;1.50;;;10.20;99.90;;;;;;5054986;28;20197;-86
2022/04/03 11:30:25;;;;;;;1.75;1.50;;;10.20;99.90;;;;;;5054966;28;20159;-78
2022/04/03 11:32:51;;;;;;;1.42;1.20;;;10.10;99.80;;;;;;5054784;28;20289;-87
2022/04/03 11:35:32;;;;;;;4.75;1.05;;;9.60;99.00;;;;;;5055002;28;20182;-78
2022/04/03 11:37:57;;;;;;;2.05;1.10;;;9.20;99.80;;;;;;5054927;28;20183;-77
2022/04/03 11:40:23;;;;;;;2.00;1.20;;;8.80;99.90;;;;;;5053121;28;20183;-78
2022/04/03 11:43:04;;;;;;;2.67;1.85;;;9.00;99.90;;;;;;5054238;28;20238;-87
2022/04/03 11:45:30;;;;;;;1.27;0.98;;;9.40;99.90;;;;;;5053858;28;20166;-78
2022/04/03 11:48:22;;;;;;;3.20;1.00;;;9.80;99.60;;;;;;5054017;28;20210;-77
2022/04/03 11:50:52;;;;;;;2.38;1.20;;;10.30;99.90;;;;;;5054008;28;20167;-77
2022/04/03 11:53:18;;;;;;;1.20;1.10;;;10.90;98.80;;;;;;5053928;28;20202;-77
2022/04/03 11:55:44;;;;;;;1.30;1.17;;;10.90;97.90;;;;;;5054380;28;20175;-77
2022/04/03 11:58:10;;;;;;;1.88;1.10;;;10.70;98.00;;;;;;5054169;28;20242;-78
2022/04/03 12:00:44;;;;;;;1.52;1.23;;;10.50;98.50;;;;;;5053929;28;20297;-77
2022/04/03 12:03:10;;;;;;;2.72;1.35;;;10.20;99.60;;;;;;5054451;28;20221;-84
2022/04/03 12:05:36;;;;;;;1.55;1.17;;;10.60;99.10;;;;;;5054271;28;20183;-77
2022/04/03 12:08:01;;;;;;;5.57;1.20;;;10.60;98.80;;;;;;5054435;28;20194;-79
2022/04/03 12:10:28;;;;;;;1.20;1.10;;;11.00;98.00;;;;;;5055828;28;20210;-78
2022/04/03 12:12:57;;;;;;;2.95;1.55;;;10.80;97.90;;;;;;5053950;28;20260;-81
2022/04/03 12:15:26;;;;;;;1.48;1.30;;;11.00;97.30;;;;;;5055386;28;20205;-85
2022/04/03 12:17:56;;;;;;;1.38;1.17;;;11.20;97.70;;;;;;5054649;28;20186;-86
2022/04/03 12:20:22;;;;;;;2.22;1.45;;;11.00;97.90;;;;;;5055285;28;20171;-87
2022/04/03 12:22:52;;;;;;;1.30;1.20;;;11.30;97.20;;;;;;5055149;28;20204;-78
2022/04/03 12:25:18;;;;;;;1.30;1.20;;;10.70;97.40;;;;;;5055832;28;20230;-78
2022/04/03 12:27:45;;;;;;;4.95;1.30;;;11.00;97.80;;;;;;5055388;28;20187;-87
2022/04/03 12:30:11;;;;;;;1.10;0.90;;;11.30;98.30;;;;;;5055288;28;20167;-88
2022/04/03 12:32:40;;;;;;;0.98;0.98;;;11.20;97.00;;;;;;5054717;28;20163;-87
2022/04/03 12:35:09;;;;;;;1.98;1.42;;;10.70;97.40;;;;;;5054207;28;20164;-81
2022/04/03 12:37:37;;;;;;;4.13;1.08;;;10.70;98.40;;;;;;5053985;28;20179;-84
2022/04/03 12:40:03;;;;;;;2.55;1.10;;;10.80;98.30;;;;;;5060371;28;20175;-79
2022/04/03 12:42:37;;;;;;;2.42;1.20;;;10.90;98.10;;;;;;5072850;28;20189;-82
2022/04/03 12:45:02;;;;;;;1.30;1.20;;;11.20;98.10;;;;;;5072088;28;20230;-78
2022/04/03 12:47:38;;;;;;;1.25;1.15;;;11.10;98.40;;;;;;5072059;28;20202;-86
2022/04/03 12:50:07;;;;;;;1.67;1.25;;;11.10;98.70;;;;;;5059862;28;20175;-80
2022/04/03 12:52:37;;;;;;;1.75;1.30;;;11.30;97.90;;;;;;5057930;28;20163;-77
2022/04/03 12:55:03;;;;;;;1.52;1.15;;;11.50;98.00;;;;;;5055832;28;20173;-77
2022/04/03 13:00:17;;;;;;;3.17;1.05;;;11.20;98.10;;;;;;5064471;28;20186;-84